Latest Weather Observations for Groote Eylandt Airport

IDD60801

Issued at 1:35 pm CST Thursday 21 August 2014 (issued every 30 minutes, with the page automatically refreshed every 10 minutes)

About weather observations | Map of weather stations | Latest weather observations for NT | Other Formats
Station Details ID: 014518 Name: GROOTE EYLANDT AIRPORT Lat: -13.97 Lon: 136.46 Height: 13.7 m
Data from the previous 72 hours. | See also: Recent months at Groote Eylandt Airport
Date/Time
CST
Temp
°C
App
Temp
°C
Dew
Point
Rel
Hum
%
Delta-T
°C
Wind Press
QNH
hPa
Press
MSL
hPa
Rain
since 9 am
mm
Dir
 
Spd
km/h
Gust
km/h
Spd
kts
Gust
kts
21/01:30pm 28.2 24.5 6.3 25 11.5 SSE 15 26 8 14 1014.7 - 0.0
21/01:00pm 27.7 23.4 5.3 24 11.5 SE 17 24 9 13 1015.0 - 0.0
21/12:30pm 27.4 22.6 5.6 25 11.3 SSE 20 26 11 14 1015.4 - 0.0
21/12:00pm 27.9 23.6 7.2 27 11.0 ESE 19 32 10 17 1015.8 1015.7 0.0
21/11:30am 27.5 23.4 6.3 26 11.1 SSE 17 30 9 16 1016.1 - 0.0
21/11:00am 26.2 21.9 6.8 29 10.2 SE 19 30 10 16 1016.4 - 0.0
21/10:30am 26.0 21.8 7.6 31 9.8 SE 19 32 10 17 1016.9 - 0.0
21/10:00am 25.4 22.6 10.1 38 8.5 SE 15 24 8 13 1017.2 - 0.0
21/09:30am 24.4 21.7 11.7 45 7.2 SSE 17 26 9 14 1017.3 - 0.0
21/09:00am 23.3 21.5 13.2 53 5.8 SSE 15 24 8 13 1017.1 1017.0 0.0
21/08:30am 21.8 21.6 14.7 64 4.2 SSE 9 15 5 8 1016.9 - 0.0
21/08:00am 18.0 18.9 12.9 72 2.9 CALM 0 0 0 0 1016.6 - 0.0
21/07:30am 14.3 14.8 11.6 84 1.4 CALM 0 4 0 2 1016.5 - 0.0
21/07:00am 11.7 10.6 10.1 90 0.8 E 6 6 3 3 1016.1 - 0.0
21/06:30am 11.2 11.1 9.6 90 0.8 CALM 0 2 0 1 1015.6 - 0.0
21/06:00am 10.9 10.0 9.2 89 0.8 E 4 7 2 4 1015.2 1015.1 0.0
21/05:30am 10.8 10.6 9.2 90 0.8 CALM 0 2 0 1 1014.9 - 0.0
21/05:00am 10.9 10.7 9.2 89 0.8 CALM 0 0 0 0 1014.7 - 0.0
21/04:30am 11.1 9.9 9.4 89 0.9 E 6 7 3 4 1014.6 - 0.0
21/04:00am 11.6 10.3 9.9 89 0.9 E 7 7 4 4 1014.4 - 0.0
21/03:30am 11.8 10.8 10.2 90 0.8 ESE 6 7 3 4 1014.4 - 0.0
21/03:00am 11.9 12.0 10.1 89 0.9 CALM 0 0 0 0 1014.4 1014.3 0.0
21/02:30am 11.9 12.0 10.1 89 0.9 CALM 0 0 0 0 1014.7 - 0.0
21/02:00am 12.5 12.7 10.6 88 1.0 CALM 0 0 0 0 1014.8 - 0.0
21/01:30am 12.7 13.0 10.8 88 1.0 CALM 0 0 0 0 1014.8 - 0.0
21/01:00am 12.9 13.2 10.8 87 1.1 CALM 0 0 0 0 1015.0 - 0.0
21/12:30am 13.2 13.5 10.9 86 1.2 CALM 0 0 0 0 1015.3 - 0.0
21/12:00am 13.5 13.9 11.2 86 1.2 ESE 0 0 0 0 1015.6 1015.5 0.0
 
Date/Time
CST
Temp
°C
App
Temp
°C
Dew
Point
Rel
Hum
%
Delta-T
°C
Wind Press
QNH
hPa
Press
MSL
hPa
Rain
since 9 am
mm
Dir
 
Spd
km/h
Gust
km/h
Spd
kts
Gust
kts
20/11:30pm 13.8 13.5 11.3 85 1.3 ESE 4 6 2 3 1015.7 - 0.0
20/11:00pm 14.2 13.9 11.4 83 1.5 ESE 4 6 2 3 1015.8 - 0.0
20/10:30pm 15.0 14.2 11.8 81 1.7 E 7 7 4 4 1015.9 - 0.0
20/10:00pm 15.8 15.2 11.8 77 2.2 E 6 7 3 4 1016.0 - 0.0
20/09:30pm 16.3 16.9 11.9 75 2.4 CALM 0 0 0 0 1016.1 - 0.0
20/09:00pm 17.1 17.7 11.8 71 2.9 CALM 0 0 0 0 1016.1 1016.0 0.0
20/08:30pm 18.1 18.7 11.9 67 3.4 CALM 0 0 0 0 1015.9 - 0.0
20/08:00pm 19.2 19.7 11.7 62 4.1 CALM 0 0 0 0 1015.6 - 0.0
20/07:30pm 20.5 21.0 11.7 57 4.9 CALM 0 0 0 0 1015.3 - 0.0
20/07:00pm 21.5 20.7 11.2 52 5.7 ESE 6 9 3 5 1015.1 - 0.0
20/06:30pm 22.6 21.1 10.7 47 6.6 ESE 9 13 5 7 1014.8 - 0.0
20/06:00pm 24.0 22.4 10.3 42 7.6 SE 9 13 5 7 1014.5 1014.4 0.0
20/05:30pm 24.5 22.4 11.1 43 7.5 S 13 19 7 10 1014.2 - 0.0
20/05:00pm 25.8 23.8 10.0 37 8.7 S 11 17 6 9 1014.1 - 0.0
20/04:30pm 26.5 24.4 9.8 35 9.2 SSE 11 20 6 11 1013.8 - 0.0
20/04:00pm 26.0 22.9 8.9 34 9.3 SSE 15 24 8 13 1013.7 - 0.0
20/03:30pm 26.7 24.3 10.0 35 9.3 SSE 13 24 7 13 1013.8 - 0.0
20/03:00pm 26.7 24.6 11.2 38 8.8 S 13 20 7 11 1014.0 1013.9 0.0
20/02:30pm 27.0 25.3 12.3 40 8.5 S 13 20 7 11 1014.0 - 0.0
20/02:00pm 26.9 24.9 11.4 38 8.8 S 13 24 7 13 1014.5 - 0.0
20/01:30pm 27.8 25.4 11.4 36 9.4 SE 15 20 8 11 1014.9 - 0.0
20/01:00pm 27.4 25.1 10.6 35 9.5 SE 13 22 7 12 1015.3 - 0.0
20/12:30pm 27.4 25.3 11.0 36 9.3 ESE 13 22 7 12 1015.6 - 0.0
20/12:00pm 27.2 25.0 12.0 38 8.8 ESE 15 22 8 12 1015.9 1015.8 0.0
20/11:30am 27.6 24.9 11.6 37 9.2 E 17 26 9 14 1016.2 - 0.0
20/11:00am 26.6 24.9 12.6 42 8.1 ESE 13 20 7 11 1016.6 - 0.0
20/10:30am 25.9 25.0 13.7 47 7.2 SSE 11 19 6 10 1016.9 - 0.0
20/10:00am 24.7 24.0 14.2 52 6.2 SSE 11 19 6 10 1017.1 - 0.0
20/09:30am 23.3 21.2 14.6 58 5.1 S 19 26 10 14 1017.4 - 0.0
20/09:00am 22.5 21.6 14.9 62 4.5 SSE 13 22 7 12 1017.4 1017.3 0.0
20/08:30am 20.9 22.5 15.0 69 3.5 CALM 0 0 0 0 1017.2 - 0.0
20/08:00am 16.7 16.6 13.4 81 1.9 ESE 6 7 3 4 1016.9 - 0.0
20/07:30am 13.1 12.3 11.2 88 1.0 ESE 6 9 3 5 1016.7 - 0.0
20/07:00am 10.9 9.6 9.3 90 0.8 ESE 6 6 3 3 1016.4 - 0.0
20/06:30am 10.6 10.1 9.2 91 0.7 E 2 6 1 3 1016.0 - 0.0
20/06:00am 10.8 10.7 9.4 91 0.7 CALM 0 0 0 0 1015.8 1015.7 0.0
20/05:30am 10.5 10.3 8.9 90 0.8 CALM 0 0 0 0 1015.5 - 0.0
20/05:00am 10.9 10.8 9.3 90 0.8 CALM 0 0 0 0 1015.4 - 0.0
20/04:30am 11.1 11.1 9.7 91 0.7 CALM 0 0 0 0 1015.2 - 0.0
20/04:00am 11.2 11.1 9.6 90 0.8 CALM 0 0 0 0 1015.0 - 0.0
20/03:30am 11.1 9.7 9.5 90 0.8 E 7 9 4 5 1015.2 - 0.0
20/03:00am 11.4 10.6 9.8 90 0.8 ESE 4 9 2 5 1015.1 1015.0 0.0
20/02:30am 11.5 11.5 9.9 90 0.8 CALM 0 0 0 0 1015.2 - 0.0
20/02:00am 11.5 11.1 9.8 89 0.9 E 2 7 1 4 1015.4 - 0.0
20/01:30am 12.1 11.0 10.0 87 1.1 E 6 6 3 3 1015.4 - 0.0
20/01:00am 12.1 12.1 9.8 86 1.2 CALM 0 0 0 0 1015.6 - 0.0
20/12:30am 12.7 12.8 10.1 84 1.3 CALM 0 0 0 0 1016.0 - 0.0
20/12:00am 12.8 12.5 10.2 84 1.3 E 2 6 1 3 1016.3 1016.2 0.0
 
Date/Time
CST
Temp
°C
App
Temp
°C
Dew
Point
Rel
Hum
%
Delta-T
°C
Wind Press
QNH
hPa
Press
MSL
hPa
Rain
since 9 am
mm
Dir
 
Spd
km/h
Gust
km/h
Spd
kts
Gust
kts
19/11:30pm 13.4 12.4 10.2 81 1.7 E 6 7 3 4 1016.3 - 0.0
19/11:00pm 13.5 12.9 10.3 81 1.7 E 4 7 2 4 1016.2 - 0.0
19/10:30pm 14.3 14.3 9.9 75 2.3 CALM 0 0 0 0 1016.4 - 0.0
19/10:00pm 15.1 14.5 10.5 74 2.4 E 4 7 2 4 1016.3 - 0.0
19/09:30pm 15.0 14.9 9.6 70 2.8 CALM 0 0 0 0 1016.3 - 0.0
19/09:00pm 17.0 17.1 10.1 64 3.6 CALM 0 0 0 0 1016.3 1016.2 0.0
19/08:30pm 17.9 16.8 10.0 60 4.2 E 6 6 3 3 1016.2 - 0.0
19/08:00pm 18.6 17.4 9.7 56 4.7 ESE 6 9 3 5 1015.8 - 0.0
19/07:30pm 19.8 18.2 8.8 49 5.8 ESE 7 9 4 5 1015.5 - 0.0
19/07:00pm 20.7 19.0 8.4 45 6.4 SE 7 11 4 6 1015.0 - 0.0
19/06:30pm 21.5 19.8 8.4 43 6.9 SE 7 9 4 5 1014.7 - 0.0
19/06:00pm 22.7 20.2 8.4 40 7.6 SSE 11 20 6 11 1014.5 1014.4 0.0
19/05:30pm 23.7 20.8 8.2 37 8.2 SSE 13 20 7 11 1014.3 - 0.0
19/05:00pm 24.5 21.2 8.0 35 8.8 S 15 24 8 13 1014.4 - 0.0
19/04:30pm 24.8 21.8 7.9 34 9.0 S 13 26 7 14 1014.2 - 0.0
19/04:00pm 25.2 22.2 9.1 36 8.8 S 15 28 8 15 1014.3 - 0.0
19/03:30pm 25.3 21.8 8.7 35 9.0 S 17 26 9 14 1014.4 - 0.0
19/03:00pm 26.1 23.0 9.0 34 9.3 SSE 15 28 8 15 1014.6 1014.5 0.0
19/02:30pm 26.4 23.2 10.1 36 9.1 SSE 17 28 9 15 1014.8 - 0.0
19/02:00pm 26.1 24.0 11.1 39 8.5 SSW 13 22 7 12 1015.0 - 0.0
19/01:30pm 26.4 24.6 10.9 38 8.7 SSE 11 20 6 11 1015.5 - 0.0
19/01:00pm 26.8 23.8 9.2 33 9.7 SE 15 20 8 11 1015.9 - 0.0
19/12:30pm 26.8 22.9 8.7 32 9.9 E 19 26 10 14 1016.5 - 0.0
19/12:00pm 26.4 24.5 10.5 37 8.9 SSE 11 22 6 12 1017.1 1017.0 0.0
19/11:30am 25.4 22.8 9.3 36 8.8 SSE 13 20 7 11 1017.6 - 0.0
19/11:00am 25.0 22.9 9.7 38 8.4 SSE 11 22 6 12 1018.1 - 0.0
19/10:30am 24.1 21.1 9.3 39 8.0 SSE 15 26 8 14 1018.6 - 0.0
19/10:00am 24.0 22.1 11.7 46 7.0 SSE 13 24 7 13 1018.7 - 0.0
19/09:30am 22.9 20.5 12.8 53 5.8 S 17 30 9 16 1018.7 - 0.0
19/09:00am 21.9 21.2 14.3 62 4.4 S 11 19 6 10 1018.8 1018.7 0.0
19/08:30am 19.9 20.3 14.7 72 3.0 SSE 6 13 3 7 1018.7 - 0.0
19/08:00am 15.5 16.0 11.7 78 2.1 CALM 0 0 0 0 1018.6 - 0.0
19/07:30am 12.0 11.9 9.6 85 1.2 CALM 0 0 0 0 1018.3 - 0.0
19/07:00am 9.1 8.6 7.7 91 0.7 CALM 0 0 0 0 1018.0 - 0.0
19/06:30am 9.0 8.1 7.8 92 0.6 E 2 6 1 3 1017.7 - 0.0
19/06:00am 8.9 7.2 7.7 92 0.6 ESE 6 7 3 4 1017.5 1017.4 0.0
19/05:30am 9.0 8.5 7.8 92 0.6 CALM 0 0 0 0 1017.2 - 0.0
19/05:00am 9.1 8.6 7.9 92 0.6 CALM 0 0 0 0 1016.9 - 0.0
19/04:30am 9.2 8.7 8.0 92 0.6 CALM 0 0 0 0 1016.8 - 0.0
19/04:00am 9.3 8.8 7.9 91 0.7 CALM 0 0 0 0 1016.7 - 0.0
19/03:30am 9.1 8.2 7.7 91 0.7 SE 2 7 1 4 1016.7 - 0.0
19/03:00am 9.6 8.0 8.2 91 0.7 E 6 7 3 4 1016.7 1016.6 0.0
19/02:30am 10.0 8.5 8.6 91 0.7 E 6 7 3 4 1016.6 - 0.0
19/02:00am 10.7 9.2 9.0 89 0.8 E 7 9 4 5 1016.8 - 0.0
19/01:30am 11.2 10.8 9.6 90 0.8 ESE 2 7 1 4 1016.9 - 0.0
19/01:00am 10.8 9.6 9.7 93 0.6 SSE 6 15 3 8 1016.9 - 0.0
19/12:30am 10.6 10.4 9.0 90 0.8 CALM 0 0 0 0 1016.9 - 0.0
19/12:00am 10.9 10.7 9.2 89 0.8 CALM 0 0 0 0 1016.9 1016.8 0.0
 
Date/Time
CST
Temp
°C
App
Temp
°C
Dew
Point
Rel
Hum
%
Delta-T
°C
Wind Press
QNH
hPa
Press
MSL
hPa
Rain
since 9 am
mm
Dir
 
Spd
km/h
Gust
km/h
Spd
kts
Gust
kts
18/11:30pm 11.6 10.8 9.7 88 1.0 E 4 6 2 3 1017.0 - 0.0
18/11:00pm 12.2 12.3 10.3 88 1.0 CALM 0 0 0 0 1017.2 - 0.0
18/10:30pm 12.9 13.1 10.6 86 1.2 CALM 0 0 0 0 1017.5 - 0.0
18/10:00pm 14.0 14.2 10.6 80 1.8 CALM 0 0 0 0 1017.6 - 0.0
18/09:30pm 15.5 15.9 11.1 75 2.3 CALM 0 0 0 0 1017.7 - 0.0
18/09:00pm 17.2 17.8 11.9 71 2.9 CALM 0 6 0 3 1017.6 1017.5 0.0
18/08:30pm 18.4 17.8 12.4 68 3.3 ESE 7 9 4 5 1017.5 - 0.0
18/08:00pm 18.9 18.3 12.4 66 3.6 ESE 7 11 4 6 1017.3 - 0.0
18/07:30pm 19.6 19.0 12.4 63 4.0 SE 7 11 4 6 1017.0 - 0.0
18/07:00pm 20.2 19.2 12.4 61 4.4 SE 9 15 5 8 1016.8 - 0.0
18/06:30pm 21.0 19.6 12.2 57 4.9 SE 11 19 6 10 1016.4 - 0.0
18/06:00pm 21.9 20.4 11.9 53 5.6 SE 11 19 6 10 1016.2 1016.1 0.0
18/05:30pm 22.9 20.6 11.9 50 6.2 SSE 15 22 8 12 1015.9 - 0.0
18/05:00pm 23.9 21.4 12.2 48 6.7 ESE 17 28 9 15 1015.7 - 0.0
18/04:30pm 24.1 20.9 11.8 46 7.0 ESE 20 32 11 17 1015.3 - 0.0
18/04:00pm 25.3 22.9 12.5 45 7.4 ESE 17 28 9 15 1015.2 - 0.0
18/03:51pm 26.2 24.3 13.0 44 7.7 ESE 15 26 8 14 1015.2 - 0.0
18/03:50pm 26.1 24.2 12.9 44 7.7 SE 15 26 8 14 1015.2 - 0.0
18/03:30pm 25.5 22.9 12.0 43 7.7 SE 17 26 9 14 1015.2 - 0.0
18/03:00pm 26.2 23.3 12.3 42 8.0 ESE 19 33 10 18 1015.2 1015.1 0.0
18/02:30pm 26.6 24.5 12.3 41 8.3 SE 15 24 8 13 1015.4 - 0.0
18/02:00pm 26.2 23.8 11.5 40 8.4 SE 15 24 8 13 1015.8 - 0.0

Other Formats:

Comma delimited format used in spreadsheet applications
http://www.bom.gov.au/fwo/IDD60801/IDD60801.94153.axf

JavaScript Object Notation format (JSON) in row-major order
http://www.bom.gov.au/fwo/IDD60801/IDD60801.94153.json